sensor_id;sensor_type;location;lat;lon;timestamp;pressure;altitude;pressure_sealevel;temperature;humidity
43450;BME280;29041;42.266;23.110;2024-01-30T00:09:01;97671.50;;;-1.01;89.58
43450;BME280;29041;42.266;23.110;2024-01-30T00:12:10;97679.19;;;-0.99;90.07
43450;BME280;29041;42.266;23.110;2024-01-30T00:15:32;97637.56;;;-1.24;90.74
43450;BME280;29041;42.266;23.110;2024-01-30T00:18:34;97667.97;;;-1.28;91.93
43450;BME280;29041;42.266;23.110;2024-01-30T00:21:43;97668.22;;;-1.16;90.45
43450;BME280;29041;42.266;23.110;2024-01-30T00:24:39;97653.59;;;-1.25;90.06
43450;BME280;29041;42.266;23.110;2024-01-30T00:27:33;97643.19;;;-1.40;89.92
43450;BME280;29041;42.266;23.110;2024-01-30T00:30:39;97656.84;;;-1.17;89.76
43450;BME280;29041;42.266;23.110;2024-01-30T00:33:31;97620.66;;;-1.56;91.00
43450;BME280;29041;42.266;23.110;2024-01-30T01:18:03;97571.38;;;-2.31;92.46
43450;BME280;29041;42.266;23.110;2024-01-30T01:20:51;97660.38;;;-1.58;91.77
43450;BME280;29041;42.266;23.110;2024-01-30T01:23:52;97647.34;;;-1.80;91.66
43450;BME280;29041;42.266;23.110;2024-01-30T01:26:41;97660.59;;;-2.01;91.91
43450;BME280;29041;42.266;23.110;2024-01-30T02:21:43;97663.66;;;-1.98;95.36
43450;BME280;29041;42.266;23.110;2024-01-30T02:30:20;97651.28;;;-2.32;96.28
43450;BME280;29041;42.266;23.110;2024-01-30T02:33:17;97680.22;;;-2.32;97.22
43450;BME280;29041;42.266;23.110;2024-01-30T02:36:05;97656.78;;;-2.27;96.07
43450;BME280;29041;42.266;23.110;2024-01-30T02:39:15;97651.44;;;-2.41;95.40
43450;BME280;29041;42.266;23.110;2024-01-30T02:42:08;97674.47;;;-2.43;97.59
43450;BME280;29041;42.266;23.110;2024-01-30T02:44:58;97600.72;;;-2.91;98.01
43450;BME280;29041;42.266;23.110;2024-01-30T02:47:52;97591.63;;;-2.89;96.34
43450;BME280;29041;42.266;23.110;2024-01-30T02:50:41;97654.59;;;-2.52;97.37
43450;BME280;29041;42.266;23.110;2024-01-30T02:53:34;97634.78;;;-2.76;98.27
43450;BME280;29041;42.266;23.110;2024-01-30T02:56:26;97670.47;;;-2.38;98.66
43450;BME280;29041;42.266;23.110;2024-01-30T02:59:20;97682.38;;;-2.43;97.17
43450;BME280;29041;42.266;23.110;2024-01-30T03:20:22;97669.09;;;-2.34;95.49
43450;BME280;29041;42.266;23.110;2024-01-30T03:23:15;97649.53;;;-2.25;93.22
43450;BME280;29041;42.266;23.110;2024-01-30T03:26:07;97623.16;;;-2.60;93.62
43450;BME280;29041;42.266;23.110;2024-01-30T03:29:03;97659.53;;;-2.42;93.63
43450;BME280;29041;42.266;23.110;2024-01-30T03:32:05;97650.31;;;-2.25;92.73
43450;BME280;29041;42.266;23.110;2024-01-30T03:34:58;97661.47;;;-2.22;93.00
43450;BME280;29041;42.266;23.110;2024-01-30T03:37:52;97655.63;;;-2.18;91.46
43450;BME280;29041;42.266;23.110;2024-01-30T03:40:53;97645.97;;;-2.11;90.91
43450;BME280;29041;42.266;23.110;2024-01-30T03:44:00;97650.16;;;-2.51;93.91
43450;BME280;29041;42.266;23.110;2024-01-30T03:47:09;97658.78;;;-2.29;93.25
43450;BME280;29041;42.266;23.110;2024-01-30T03:50:00;97620.53;;;-2.60;93.68
43450;BME280;29041;42.266;23.110;2024-01-30T03:52:53;97615.81;;;-2.72;93.71
43450;BME280;29041;42.266;23.110;2024-01-30T03:55:43;97660.13;;;-2.68;95.97
43450;BME280;29041;42.266;23.110;2024-01-30T03:58:34;97624.78;;;-2.88;95.93
43450;BME280;29041;42.266;23.110;2024-01-30T04:01:31;97661.25;;;-2.56;96.89
43450;BME280;29041;42.266;23.110;2024-01-30T04:04:24;97654.19;;;-2.77;97.13
43450;BME280;29041;42.266;23.110;2024-01-30T04:07:16;97672.59;;;-2.77;98.02
43450;BME280;29041;42.266;23.110;2024-01-30T04:10:14;97657.22;;;-2.80;96.59
43450;BME280;29041;42.266;23.110;2024-01-30T04:13:04;97664.09;;;-2.51;96.95
43450;BME280;29041;42.266;23.110;2024-01-30T04:15:59;97662.78;;;-2.68;97.21
43450;BME280;29041;42.266;23.110;2024-01-30T04:18:49;97648.75;;;-2.76;97.72
43450;BME280;29041;42.266;23.110;2024-01-30T04:21:37;97636.41;;;-2.75;97.71
43450;BME280;29041;42.266;23.110;2024-01-30T04:24:26;97644.22;;;-2.82;97.49
43450;BME280;29041;42.266;23.110;2024-01-30T04:27:15;97654.06;;;-2.69;97.78
43450;BME280;29041;42.266;23.110;2024-01-30T04:30:10;97652.63;;;-2.72;97.36
43450;BME280;29041;42.266;23.110;2024-01-30T04:32:57;97655.69;;;-2.68;98.90
43450;BME280;29041;42.266;23.110;2024-01-30T04:35:45;97663.63;;;-2.83;98.74
43450;BME280;29041;42.266;23.110;2024-01-30T04:38:32;97661.75;;;-2.89;99.34
43450;BME280;29041;42.266;23.110;2024-01-30T04:41:19;97669.22;;;-2.93;100.00
43450;BME280;29041;42.266;23.110;2024-01-30T04:44:07;97651.09;;;-2.88;99.29
43450;BME280;29041;42.266;23.110;2024-01-30T04:46:54;97668.53;;;-3.01;99.75
43450;BME280;29041;42.266;23.110;2024-01-30T04:49:44;97655.91;;;-3.13;100.00
43450;BME280;29041;42.266;23.110;2024-01-30T04:52:31;97657.38;;;-3.25;100.00
43450;BME280;29041;42.266;23.110;2024-01-30T04:55:19;97656.81;;;-3.21;100.00
43450;BME280;29041;42.266;23.110;2024-01-30T04:58:06;97673.97;;;-3.25;100.00
43450;BME280;29041;42.266;23.110;2024-01-30T05:00:54;97667.84;;;-3.32;100.00
43450;BME280;29041;42.266;23.110;2024-01-30T05:03:41;97676.41;;;-3.23;100.00
43450;BME280;29041;42.266;23.110;2024-01-30T05:06:34;97672.59;;;-3.21;100.00
43450;BME280;29041;42.266;23.110;2024-01-30T05:09:21;97682.75;;;-3.17;100.00
43450;BME280;29041;42.266;23.110;2024-01-30T05:12:08;97672.16;;;-3.03;100.00
43450;BME280;29041;42.266;23.110;2024-01-30T05:14:55;97688.28;;;-3.27;100.00
43450;BME280;29041;42.266;23.110;2024-01-30T05:17:44;97681.41;;;-3.28;100.00
43450;BME280;29041;42.266;23.110;2024-01-30T05:20:46;97686.03;;;-3.30;100.00
43450;BME280;29041;42.266;23.110;2024-01-30T05:23:33;97677.41;;;-3.24;100.00
43450;BME280;29041;42.266;23.110;2024-01-30T05:26:20;97683.91;;;-3.20;100.00
43450;BME280;29041;42.266;23.110;2024-01-30T05:29:08;97660.84;;;-3.03;100.00
43450;BME280;29041;42.266;23.110;2024-01-30T05:31:55;97674.53;;;-3.08;100.00
43450;BME280;29041;42.266;23.110;2024-01-30T05:34:44;97660.09;;;-2.97;98.61
43450;BME280;29041;42.266;23.110;2024-01-30T05:37:33;97682.66;;;-2.59;97.22
43450;BME280;29041;42.266;23.110;2024-01-30T05:40:20;97672.09;;;-2.88;99.35
43450;BME280;29041;42.266;23.110;2024-01-30T05:43:07;97662.91;;;-2.98;97.66
43450;BME280;29041;42.266;23.110;2024-01-30T05:45:54;97676.34;;;-2.87;98.10
43450;BME280;29041;42.266;23.110;2024-01-30T05:48:41;97680.72;;;-2.94;97.73
43450;BME280;29041;42.266;23.110;2024-01-30T05:51:30;97692.19;;;-3.01;99.95
43450;BME280;29041;42.266;23.110;2024-01-30T05:54:25;97687.72;;;-3.01;99.69
43450;BME280;29041;42.266;23.110;2024-01-30T05:57:15;97682.41;;;-3.29;100.00
43450;BME280;29041;42.266;23.110;2024-01-30T06:00:05;97694.13;;;-3.10;99.62
43450;BME280;29041;42.266;23.110;2024-01-30T06:02:56;97696.47;;;-3.15;98.14
43450;BME280;29041;42.266;23.110;2024-01-30T06:05:43;97697.63;;;-2.81;96.32
43450;BME280;29041;42.266;23.110;2024-01-30T06:08:34;97686.53;;;-3.20;97.27
43450;BME280;29041;42.266;23.110;2024-01-30T06:11:21;97683.00;;;-3.27;97.50
43450;BME280;29041;42.266;23.110;2024-01-30T06:14:08;97682.78;;;-3.11;96.89
43450;BME280;29041;42.266;23.110;2024-01-30T06:16:55;97694.31;;;-2.68;94.77
43450;BME280;29041;42.266;23.110;2024-01-30T06:19:43;97691.88;;;-2.92;95.00
43450;BME280;29041;42.266;23.110;2024-01-30T06:22:30;97701.50;;;-2.77;95.35
43450;BME280;29041;42.266;23.110;2024-01-30T06:25:18;97703.78;;;-2.74;95.71
43450;BME280;29041;42.266;23.110;2024-01-30T06:28:05;97687.28;;;-3.05;95.81
43450;BME280;29041;42.266;23.110;2024-01-30T06:30:52;97700.81;;;-2.86;96.32
43450;BME280;29041;42.266;23.110;2024-01-30T06:33:40;97694.38;;;-2.62;98.64
43450;BME280;29041;42.266;23.110;2024-01-30T06:36:28;97708.13;;;-2.38;94.93
43450;BME280;29041;42.266;23.110;2024-01-30T06:39:15;97704.69;;;-2.38;92.46
43450;BME280;29041;42.266;23.110;2024-01-30T06:42:04;97693.94;;;-2.65;95.20
43450;BME280;29041;42.266;23.110;2024-01-30T06:44:51;97708.41;;;-2.26;94.75
43450;BME280;29041;42.266;23.110;2024-01-30T06:47:38;97701.09;;;-1.05;89.40
43450;BME280;29041;42.266;23.110;2024-01-30T06:50:25;97690.09;;;3.15;70.69
43450;BME280;29041;42.266;23.110;2024-01-30T06:53:12;97674.84;;;6.47;53.61
43450;BME280;29041;42.266;23.110;2024-01-30T06:55:59;97675.53;;;7.42;51.02
43450;BME280;29041;42.266;23.110;2024-01-30T06:58:48;97671.13;;;6.09;51.25
43450;BME280;29041;42.266;23.110;2024-01-30T07:01:35;97682.44;;;5.48;52.04
43450;BME280;29041;42.266;23.110;2024-01-30T07:04:23;97668.69;;;6.08;53.33
43450;BME280;29041;42.266;23.110;2024-01-30T07:07:10;97672.94;;;7.85;47.76
43450;BME280;29041;42.266;23.110;2024-01-30T07:09:58;97684.94;;;5.89;52.79
43450;BME280;29041;42.266;23.110;2024-01-30T07:12:46;97683.66;;;7.90;47.63
43450;BME280;29041;42.266;23.110;2024-01-30T07:15:34;97687.28;;;4.76;53.37
43450;BME280;29041;42.266;23.110;2024-01-30T07:18:22;97638.75;;;6.45;50.81
43450;BME280;29041;42.266;23.110;2024-01-30T07:21:09;97665.94;;;8.21;46.97
43450;BME280;29041;42.266;23.110;2024-01-30T07:23:56;97677.84;;;7.98;45.23
43450;BME280;29041;42.266;23.110;2024-01-30T07:26:44;97666.56;;;6.71;47.43
43450;BME280;29041;42.266;23.110;2024-01-30T07:29:31;97663.88;;;7.91;45.65
43450;BME280;29041;42.266;23.110;2024-01-30T07:32:20;97668.16;;;8.40;44.55
43450;BME280;29041;42.266;23.110;2024-01-30T07:35:07;97671.78;;;5.48;51.32
43450;BME280;29041;42.266;23.110;2024-01-30T07:37:54;97664.88;;;7.80;46.53
43450;BME280;29041;42.266;23.110;2024-01-30T07:40:42;97673.72;;;6.93;47.55
43450;BME280;29041;42.266;23.110;2024-01-30T07:43:29;97670.88;;;7.27;46.18
43450;BME280;29041;42.266;23.110;2024-01-30T07:46:16;97673.03;;;7.30;46.43
43450;BME280;29041;42.266;23.110;2024-01-30T07:49:05;97673.44;;;7.17;46.65
43450;BME280;29041;42.266;23.110;2024-01-30T07:51:52;97664.25;;;8.05;45.56
43450;BME280;29041;42.266;23.110;2024-01-30T07:54:49;97676.78;;;7.61;46.76
43450;BME280;29041;42.266;23.110;2024-01-30T07:57:38;97655.50;;;7.12;46.82
43450;BME280;29041;42.266;23.110;2024-01-30T08:00:26;97678.84;;;7.22;45.92
43450;BME280;29041;42.266;23.110;2024-01-30T08:03:14;97672.28;;;6.58;47.39
43450;BME280;29041;42.266;23.110;2024-01-30T08:06:04;97668.19;;;7.27;46.79
43450;BME280;29041;42.266;23.110;2024-01-30T08:08:52;97661.06;;;7.05;46.58
43450;BME280;29041;42.266;23.110;2024-01-30T08:11:39;97642.34;;;6.56;46.87
43450;BME280;29041;42.266;23.110;2024-01-30T08:14:26;97661.13;;;7.15;47.03
43450;BME280;29041;42.266;23.110;2024-01-30T08:17:13;97642.06;;;8.09;45.39
43450;BME280;29041;42.266;23.110;2024-01-30T08:20:00;97664.66;;;7.21;45.53
43450;BME280;29041;42.266;23.110;2024-01-30T08:22:51;97669.19;;;7.81;45.15
43450;BME280;29041;42.266;23.110;2024-01-30T08:25:38;97640.63;;;7.54;44.36
43450;BME280;29041;42.266;23.110;2024-01-30T08:28:25;97661.41;;;7.14;46.89
43450;BME280;29041;42.266;23.110;2024-01-30T08:31:13;97654.22;;;7.14;47.35
43450;BME280;29041;42.266;23.110;2024-01-30T08:34:03;97652.03;;;7.11;46.03
43450;BME280;29041;42.266;23.110;2024-01-30T08:36:50;97660.25;;;6.77;45.86
43450;BME280;29041;42.266;23.110;2024-01-30T08:39:54;97657.56;;;7.05;46.37
43450;BME280;29041;42.266;23.110;2024-01-30T08:42:42;97671.81;;;7.43;45.91
43450;BME280;29041;42.266;23.110;2024-01-30T08:45:29;97666.56;;;6.71;47.98
43450;BME280;29041;42.266;23.110;2024-01-30T08:48:17;97665.69;;;7.47;46.47
43450;BME280;29041;42.266;23.110;2024-01-30T08:51:04;97656.66;;;8.39;43.65
43450;BME280;29041;42.266;23.110;2024-01-30T08:53:55;97669.97;;;7.43;44.90
43450;BME280;29041;42.266;23.110;2024-01-30T08:56:44;97664.34;;;6.90;47.00
43450;BME280;29041;42.266;23.110;2024-01-30T08:59:31;97657.53;;;6.11;48.85
43450;BME280;29041;42.266;23.110;2024-01-30T09:02:19;97654.91;;;5.26;51.16
43450;BME280;29041;42.266;23.110;2024-01-30T09:05:07;97668.31;;;4.32;53.82
43450;BME280;29041;42.266;23.110;2024-01-30T09:07:54;97668.63;;;4.59;54.54
43450;BME280;29041;42.266;23.110;2024-01-30T09:11:16;97670.97;;;4.32;55.16
43450;BME280;29041;42.266;23.110;2024-01-30T09:14:05;97674.78;;;4.77;55.13
43450;BME280;29041;42.266;23.110;2024-01-30T09:16:52;97668.06;;;5.03;53.96
43450;BME280;29041;42.266;23.110;2024-01-30T09:19:40;97672.06;;;3.60;58.47
43450;BME280;29041;42.266;23.110;2024-01-30T09:22:27;97661.66;;;4.58;55.01
43450;BME280;29041;42.266;23.110;2024-01-30T09:25:14;97658.03;;;4.36;54.85
43450;BME280;29041;42.266;23.110;2024-01-30T09:28:02;97670.78;;;4.91;54.69
43450;BME280;29041;42.266;23.110;2024-01-30T09:30:50;97661.34;;;5.30;53.57
43450;BME280;29041;42.266;23.110;2024-01-30T09:33:37;97661.25;;;5.07;54.34
43450;BME280;29041;42.266;23.110;2024-01-30T09:36:25;97661.94;;;5.83;51.95
43450;BME280;29041;42.266;23.110;2024-01-30T09:39:13;97663.78;;;5.31;52.02
43450;BME280;29041;42.266;23.110;2024-01-30T09:42:05;97668.03;;;4.57;54.09
43450;BME280;29041;42.266;23.110;2024-01-30T09:44:56;97656.56;;;4.69;54.06
43450;BME280;29041;42.266;23.110;2024-01-30T09:47:46;97660.72;;;4.65;53.13
43450;BME280;29041;42.266;23.110;2024-01-30T09:50:34;97641.72;;;5.02;52.06
43450;BME280;29041;42.266;23.110;2024-01-30T09:53:23;97649.00;;;5.40;51.54
43450;BME280;29041;42.266;23.110;2024-01-30T09:56:12;97642.38;;;5.09;51.25
43450;BME280;29041;42.266;23.110;2024-01-30T09:58:59;97632.16;;;5.35;51.68
43450;BME280;29041;42.266;23.110;2024-01-30T10:01:46;97630.47;;;5.29;50.88
43450;BME280;29041;42.266;23.110;2024-01-30T10:04:36;97623.63;;;4.87;52.65
43450;BME280;29041;42.266;23.110;2024-01-30T10:07:24;97636.81;;;4.82;53.03
43450;BME280;29041;42.266;23.110;2024-01-30T10:10:12;97618.84;;;5.35;52.28
43450;BME280;29041;42.266;23.110;2024-01-30T10:12:59;97607.16;;;5.75;51.51
43450;BME280;29041;42.266;23.110;2024-01-30T10:15:47;97597.28;;;5.93;49.00
43450;BME280;29041;42.266;23.110;2024-01-30T10:18:34;97611.97;;;5.95;50.92
43450;BME280;29041;42.266;23.110;2024-01-30T10:21:23;97611.38;;;5.03;52.09
43450;BME280;29041;42.266;23.110;2024-01-30T10:24:10;97620.34;;;5.31;51.45
43450;BME280;29041;42.266;23.110;2024-01-30T10:27:00;97606.53;;;5.00;51.87
43450;BME280;29041;42.266;23.110;2024-01-30T10:29:48;97594.00;;;5.85;49.96
43450;BME280;29041;42.266;23.110;2024-01-30T10:32:36;97590.94;;;6.93;48.61
43450;BME280;29041;42.266;23.110;2024-01-30T10:35:23;97579.34;;;5.66;49.72
43450;BME280;29041;42.266;23.110;2024-01-30T10:38:14;97585.63;;;6.65;49.57
43450;BME280;29041;42.266;23.110;2024-01-30T10:41:03;97577.69;;;6.48;49.18
43450;BME280;29041;42.266;23.110;2024-01-30T10:43:54;97577.81;;;6.59;49.84
43450;BME280;29041;42.266;23.110;2024-01-30T10:46:51;97583.47;;;6.62;47.87
43450;BME280;29041;42.266;23.110;2024-01-30T10:49:42;97573.97;;;6.49;46.60
43450;BME280;29041;42.266;23.110;2024-01-30T10:52:32;97576.84;;;6.43;47.54
43450;BME280;29041;42.266;23.110;2024-01-30T10:55:24;97569.22;;;6.07;48.54
43450;BME280;29041;42.266;23.110;2024-01-30T10:58:14;97562.00;;;6.79;47.29
43450;BME280;29041;42.266;23.110;2024-01-30T11:01:02;97561.69;;;6.48;47.37
43450;BME280;29041;42.266;23.110;2024-01-30T11:03:50;97551.44;;;7.27;47.05
43450;BME280;29041;42.266;23.110;2024-01-30T11:06:41;97559.69;;;7.21;46.76
43450;BME280;29041;42.266;23.110;2024-01-30T11:09:29;97555.66;;;6.09;49.53
43450;BME280;29041;42.266;23.110;2024-01-30T11:12:21;97549.75;;;7.11;47.60
43450;BME280;29041;42.266;23.110;2024-01-30T11:15:10;97539.53;;;7.93;45.53
43450;BME280;29041;42.266;23.110;2024-01-30T11:17:57;97542.66;;;6.40;48.36
43450;BME280;29041;42.266;23.110;2024-01-30T11:20:46;97533.50;;;8.24;44.96
43450;BME280;29041;42.266;23.110;2024-01-30T11:23:34;97535.56;;;7.48;47.13
43450;BME280;29041;42.266;23.110;2024-01-30T11:26:27;97533.47;;;8.08;44.63
43450;BME280;29041;42.266;23.110;2024-01-30T11:29:16;97546.34;;;7.21;46.22
43450;BME280;29041;42.266;23.110;2024-01-30T11:32:05;97530.94;;;7.86;45.42
43450;BME280;29041;42.266;23.110;2024-01-30T11:34:52;97532.50;;;8.46;43.94
43450;BME280;29041;42.266;23.110;2024-01-30T11:37:39;97526.31;;;8.35;44.04
43450;BME280;29041;42.266;23.110;2024-01-30T11:40:27;97545.69;;;7.89;44.38
43450;BME280;29041;42.266;23.110;2024-01-30T11:43:15;97520.97;;;7.66;46.04
43450;BME280;29041;42.266;23.110;2024-01-30T11:46:07;97528.88;;;7.99;45.50
43450;BME280;29041;42.266;23.110;2024-01-30T11:48:56;97517.22;;;6.59;48.42
43450;BME280;29041;42.266;23.110;2024-01-30T11:51:43;97531.25;;;6.72;49.78
43450;BME280;29041;42.266;23.110;2024-01-30T11:54:34;97504.25;;;5.91;50.19
43450;BME280;29041;42.266;23.110;2024-01-30T11:57:21;97535.22;;;5.97;50.13
43450;BME280;29041;42.266;23.110;2024-01-30T12:00:14;97509.72;;;7.21;47.67
43450;BME280;29041;42.266;23.110;2024-01-30T12:03:03;97520.28;;;7.01;48.06
43450;BME280;29041;42.266;23.110;2024-01-30T12:05:56;97502.03;;;9.24;43.34
43450;BME280;29041;42.266;23.110;2024-01-30T12:08:56;97509.06;;;7.94;45.92
43450;BME280;29041;42.266;23.110;2024-01-30T12:11:44;97502.25;;;7.66;45.75
43450;BME280;29041;42.266;23.110;2024-01-30T12:14:31;97503.22;;;7.44;45.14
43450;BME280;29041;42.266;23.110;2024-01-30T12:17:27;97486.22;;;9.33;41.55
43450;BME280;29041;42.266;23.110;2024-01-30T12:20:18;97478.78;;;7.73;45.08
43450;BME280;29041;42.266;23.110;2024-01-30T12:23:07;97483.63;;;6.91;46.78
43450;BME280;29041;42.266;23.110;2024-01-30T12:25:54;97495.31;;;7.65;46.99
43450;BME280;29041;42.266;23.110;2024-01-30T12:28:48;97489.97;;;7.22;47.86
43450;BME280;29041;42.266;23.110;2024-01-30T12:31:35;97468.69;;;8.01;45.61
43450;BME280;29041;42.266;23.110;2024-01-30T12:34:24;97454.63;;;8.68;43.94
43450;BME280;29041;42.266;23.110;2024-01-30T12:37:14;97467.44;;;8.35;43.61
43450;BME280;29041;42.266;23.110;2024-01-30T12:40:25;97467.22;;;8.67;44.73
43450;BME280;29041;42.266;23.110;2024-01-30T12:43:13;97459.69;;;8.44;44.86
43450;BME280;29041;42.266;23.110;2024-01-30T12:46:00;97466.56;;;6.97;47.36
43450;BME280;29041;42.266;23.110;2024-01-30T12:48:48;97454.38;;;8.59;44.92
43450;BME280;29041;42.266;23.110;2024-01-30T12:51:35;97458.28;;;6.98;47.91
43450;BME280;29041;42.266;23.110;2024-01-30T12:54:23;97450.53;;;8.08;45.81
43450;BME280;29041;42.266;23.110;2024-01-30T12:57:11;97456.47;;;8.41;46.02
43450;BME280;29041;42.266;23.110;2024-01-30T12:59:58;97462.81;;;8.04;45.61
43450;BME280;29041;42.266;23.110;2024-01-30T13:02:45;97466.13;;;7.10;47.98
43450;BME280;29041;42.266;23.110;2024-01-30T13:05:32;97456.72;;;6.38;49.01
43450;BME280;29041;42.266;23.110;2024-01-30T13:08:19;97452.75;;;7.53;46.34
43450;BME280;29041;42.266;23.110;2024-01-30T13:11:23;97448.06;;;7.28;47.72
43450;BME280;29041;42.266;23.110;2024-01-30T13:14:11;97445.22;;;8.19;45.92
43450;BME280;29041;42.266;23.110;2024-01-30T13:16:58;97429.09;;;7.29;46.54
43450;BME280;29041;42.266;23.110;2024-01-30T13:19:46;97435.59;;;8.44;44.95
43450;BME280;29041;42.266;23.110;2024-01-30T13:22:34;97445.88;;;7.20;47.73
43450;BME280;29041;42.266;23.110;2024-01-30T13:25:23;97441.09;;;7.22;47.94
43450;BME280;29041;42.266;23.110;2024-01-30T13:28:11;97439.91;;;4.82;53.08
43450;BME280;29041;42.266;23.110;2024-01-30T13:30:58;97447.34;;;5.58;51.25
43450;BME280;29041;42.266;23.110;2024-01-30T13:33:45;97425.09;;;4.69;55.16
43450;BME280;29041;42.266;23.110;2024-01-30T13:38:59;97426.03;;;4.97;55.43
43450;BME280;29041;42.266;23.110;2024-01-30T13:41:47;97450.75;;;5.14;54.17
43450;BME280;29041;42.266;23.110;2024-01-30T13:44:39;97427.00;;;6.24;51.16
43450;BME280;29041;42.266;23.110;2024-01-30T13:47:26;97398.38;;;7.32;49.74
43450;BME280;29041;42.266;23.110;2024-01-30T13:50:14;97421.66;;;5.74;51.71
43450;BME280;29041;42.266;23.110;2024-01-30T13:53:03;97444.81;;;6.18;50.48
43450;BME280;29041;42.266;23.110;2024-01-30T13:55:51;97409.06;;;6.14;49.97
43450;BME280;29041;42.266;23.110;2024-01-30T13:58:38;97414.59;;;5.40;51.54
43450;BME280;29041;42.266;23.110;2024-01-30T14:01:28;97442.50;;;6.27;50.35
43450;BME280;29041;42.266;23.110;2024-01-30T14:04:15;97413.88;;;5.67;52.43
43450;BME280;29041;42.266;23.110;2024-01-30T14:07:03;97443.50;;;6.48;50.61
43450;BME280;29041;42.266;23.110;2024-01-30T14:09:50;97427.22;;;6.49;48.47
43450;BME280;29041;42.266;23.110;2024-01-30T14:12:37;97449.69;;;6.54;49.85
43450;BME280;29041;42.266;23.110;2024-01-30T14:15:28;97437.56;;;4.85;53.80
43450;BME280;29041;42.266;23.110;2024-01-30T14:18:16;97435.56;;;5.54;53.19
43450;BME280;29041;42.266;23.110;2024-01-30T14:21:04;97436.44;;;4.81;53.43
43450;BME280;29041;42.266;23.110;2024-01-30T14:23:53;97436.47;;;5.03;54.49
43450;BME280;29041;42.266;23.110;2024-01-30T14:26:40;97447.00;;;4.59;54.23
43450;BME280;29041;42.266;23.110;2024-01-30T14:29:28;97425.81;;;4.64;53.74
43450;BME280;29041;42.266;23.110;2024-01-30T14:32:15;97436.94;;;3.98;57.49
43450;BME280;29041;42.266;23.110;2024-01-30T14:35:05;97443.75;;;4.40;55.01
43450;BME280;29041;42.266;23.110;2024-01-30T14:37:52;97436.84;;;3.52;57.39
43450;BME280;29041;42.266;23.110;2024-01-30T14:40:41;97442.16;;;3.52;58.80
43450;BME280;29041;42.266;23.110;2024-01-30T14:43:28;97442.88;;;3.76;58.33
43450;BME280;29041;42.266;23.110;2024-01-30T14:46:16;97446.53;;;3.46;58.16
43450;BME280;29041;42.266;23.110;2024-01-30T14:49:03;97439.97;;;3.49;58.34
43450;BME280;29041;42.266;23.110;2024-01-30T14:51:52;97445.34;;;3.01;60.44
43450;BME280;29041;42.266;23.110;2024-01-30T14:54:39;97440.00;;;3.25;59.44
43450;BME280;29041;42.266;23.110;2024-01-30T14:57:27;97443.38;;;3.09;61.26
43450;BME280;29041;42.266;23.110;2024-01-30T15:00:15;97418.09;;;2.47;62.25
43450;BME280;29041;42.266;23.110;2024-01-30T15:03:03;97445.50;;;2.41;63.59
43450;BME280;29041;42.266;23.110;2024-01-30T15:05:50;97447.53;;;2.69;62.20
43450;BME280;29041;42.266;23.110;2024-01-30T15:08:38;97456.41;;;2.87;61.67
43450;BME280;29041;42.266;23.110;2024-01-30T15:11:27;97465.16;;;2.63;62.78
43450;BME280;29041;42.266;23.110;2024-01-30T15:14:16;97459.09;;;2.32;62.97
43450;BME280;29041;42.266;23.110;2024-01-30T15:17:03;97427.03;;;2.22;62.20
43450;BME280;29041;42.266;23.110;2024-01-30T15:19:50;97464.81;;;2.72;61.42
43450;BME280;29041;42.266;23.110;2024-01-30T15:22:38;97482.34;;;2.18;64.58
43450;BME280;29041;42.266;23.110;2024-01-30T15:25:27;97483.03;;;2.80;61.05
43450;BME280;29041;42.266;23.110;2024-01-30T15:28:15;97495.38;;;2.74;61.41
43450;BME280;29041;42.266;23.110;2024-01-30T15:31:03;97474.94;;;2.51;60.85
43450;BME280;29041;42.266;23.110;2024-01-30T15:33:51;97491.78;;;2.26;61.94
43450;BME280;29041;42.266;23.110;2024-01-30T15:36:38;97500.59;;;2.38;61.57
43450;BME280;29041;42.266;23.110;2024-01-30T15:39:30;97495.34;;;2.62;61.71
43450;BME280;29041;42.266;23.110;2024-01-30T15:42:19;97492.97;;;2.73;61.40
43450;BME280;29041;42.266;23.110;2024-01-30T15:45:07;97499.13;;;2.43;62.38
43450;BME280;29041;42.266;23.110;2024-01-30T15:47:54;97498.34;;;1.93;64.09
43450;BME280;29041;42.266;23.110;2024-01-30T15:50:41;97493.91;;;2.05;64.36
43450;BME280;29041;42.266;23.110;2024-01-30T15:53:28;97480.09;;;2.34;63.01
43450;BME280;29041;42.266;23.110;2024-01-30T15:56:15;97493.72;;;2.19;62.88
43450;BME280;29041;42.266;23.110;2024-01-30T15:59:04;97494.59;;;2.01;63.52
43450;BME280;29041;42.266;23.110;2024-01-30T16:01:52;97500.06;;;1.87;64.00
43450;BME280;29041;42.266;23.110;2024-01-30T16:04:39;97496.53;;;1.56;66.07
43450;BME280;29041;42.266;23.110;2024-01-30T16:07:26;97509.34;;;2.09;65.76
43450;BME280;29041;42.266;23.110;2024-01-30T16:10:13;97507.34;;;1.92;65.84
43450;BME280;29041;42.266;23.110;2024-01-30T16:13:02;97517.34;;;1.90;66.21
43450;BME280;29041;42.266;23.110;2024-01-30T16:15:52;97507.09;;;1.38;68.20
43450;BME280;29041;42.266;23.110;2024-01-30T16:18:39;97521.22;;;1.69;68.28
43450;BME280;29041;42.266;23.110;2024-01-30T16:21:26;97529.03;;;1.64;66.49
43450;BME280;29041;42.266;23.110;2024-01-30T16:24:13;97528.50;;;1.36;68.43
43450;BME280;29041;42.266;23.110;2024-01-30T16:27:02;97525.13;;;1.66;67.51
43450;BME280;29041;42.266;23.110;2024-01-30T16:33:24;97471.00;;;0.81;67.66
43450;BME280;29041;42.266;23.110;2024-01-30T16:36:12;97496.81;;;0.86;69.18
43450;BME280;29041;42.266;23.110;2024-01-30T16:42:04;97472.59;;;0.89;68.61
43450;BME280;29041;42.266;23.110;2024-01-30T16:45:07;97513.13;;;1.26;70.64
43450;BME280;29041;42.266;23.110;2024-01-30T16:48:00;97512.50;;;0.55;71.89
43450;BME280;29041;42.266;23.110;2024-01-30T17:02:43;97478.22;;;0.42;71.95
43450;BME280;29041;42.266;23.110;2024-01-30T17:09:51;97502.94;;;0.22;74.64
43450;BME280;29041;42.266;23.110;2024-01-30T17:12:54;97561.56;;;1.02;72.97
43450;BME280;29041;42.266;23.110;2024-01-30T17:16:30;97549.19;;;0.70;75.27
43450;BME280;29041;42.266;23.110;2024-01-30T18:31:14;97598.44;;;-0.46;89.01
43450;BME280;29041;42.266;23.110;2024-01-30T18:34:02;97587.50;;;-0.70;87.50
43450;BME280;29041;42.266;23.110;2024-01-30T19:37:06;97541.53;;;-1.97;90.57